sensor_id;sensor_type;location;lat;lon;timestamp;P1;durP1;ratioP1;P2;durP2;ratioP2
5042;SDS011;2540;50.928;6.856;2023-02-11T00:00:28;31.73;;;16.10;;
5042;SDS011;2540;50.928;6.856;2023-02-11T00:02:54;27.87;;;14.40;;
5042;SDS011;2540;50.928;6.856;2023-02-11T00:05:19;29.57;;;14.27;;
5042;SDS011;2540;50.928;6.856;2023-02-11T00:07:44;26.60;;;12.73;;
5042;SDS011;2540;50.928;6.856;2023-02-11T00:10:09;29.73;;;14.53;;
5042;SDS011;2540;50.928;6.856;2023-02-11T00:12:35;31.07;;;13.67;;
5042;SDS011;2540;50.928;6.856;2023-02-11T00:15:01;27.57;;;13.37;;
5042;SDS011;2540;50.928;6.856;2023-02-11T00:17:26;29.50;;;13.23;;
5042;SDS011;2540;50.928;6.856;2023-02-11T00:19:53;23.30;;;13.20;;
5042;SDS011;2540;50.928;6.856;2023-02-11T00:22:18;26.13;;;12.60;;
5042;SDS011;2540;50.928;6.856;2023-02-11T00:24:43;26.70;;;11.53;;
5042;SDS011;2540;50.928;6.856;2023-02-11T00:27:09;25.43;;;11.80;;
5042;SDS011;2540;50.928;6.856;2023-02-11T00:29:35;29.53;;;12.67;;
5042;SDS011;2540;50.928;6.856;2023-02-11T00:32:00;28.37;;;13.53;;
5042;SDS011;2540;50.928;6.856;2023-02-11T00:34:29;31.20;;;12.97;;
5042;SDS011;2540;50.928;6.856;2023-02-11T00:36:54;37.40;;;13.23;;
5042;SDS011;2540;50.928;6.856;2023-02-11T00:39:19;38.57;;;12.90;;
5042;SDS011;2540;50.928;6.856;2023-02-11T00:41:44;28.70;;;12.17;;
5042;SDS011;2540;50.928;6.856;2023-02-11T00:44:10;25.10;;;12.27;;
5042;SDS011;2540;50.928;6.856;2023-02-11T00:46:35;31.70;;;12.80;;
5042;SDS011;2540;50.928;6.856;2023-02-11T00:49:00;25.20;;;11.30;;
5042;SDS011;2540;50.928;6.856;2023-02-11T00:51:26;24.40;;;13.37;;
5042;SDS011;2540;50.928;6.856;2023-02-11T00:53:52;31.90;;;12.97;;
5042;SDS011;2540;50.928;6.856;2023-02-11T00:56:17;31.33;;;13.23;;
5042;SDS011;2540;50.928;6.856;2023-02-11T00:58:42;35.43;;;12.07;;
5042;SDS011;2540;50.928;6.856;2023-02-11T01:01:07;28.03;;;12.50;;
5042;SDS011;2540;50.928;6.856;2023-02-11T01:03:33;29.03;;;14.00;;
5042;SDS011;2540;50.928;6.856;2023-02-11T01:05:58;24.30;;;12.60;;
5042;SDS011;2540;50.928;6.856;2023-02-11T01:08:23;32.93;;;13.50;;
5042;SDS011;2540;50.928;6.856;2023-02-11T01:10:55;28.33;;;13.70;;
5042;SDS011;2540;50.928;6.856;2023-02-11T01:13:21;27.83;;;13.47;;
5042;SDS011;2540;50.928;6.856;2023-02-11T01:15:46;30.47;;;13.00;;
5042;SDS011;2540;50.928;6.856;2023-02-11T01:18:11;30.30;;;13.40;;
5042;SDS011;2540;50.928;6.856;2023-02-11T01:20:36;30.47;;;13.60;;
5042;SDS011;2540;50.928;6.856;2023-02-11T01:23:02;29.40;;;13.00;;
5042;SDS011;2540;50.928;6.856;2023-02-11T01:25:27;28.90;;;14.07;;
5042;SDS011;2540;50.928;6.856;2023-02-11T01:27:52;30.17;;;13.03;;
5042;SDS011;2540;50.928;6.856;2023-02-11T01:30:17;29.30;;;14.30;;
5042;SDS011;2540;50.928;6.856;2023-02-11T01:32:42;30.33;;;14.00;;
5042;SDS011;2540;50.928;6.856;2023-02-11T01:35:08;31.43;;;14.10;;
5042;SDS011;2540;50.928;6.856;2023-02-11T01:37:33;31.77;;;16.90;;
5042;SDS011;2540;50.928;6.856;2023-02-11T01:39:58;32.00;;;13.80;;
5042;SDS011;2540;50.928;6.856;2023-02-11T01:42:25;42.53;;;15.00;;
5042;SDS011;2540;50.928;6.856;2023-02-11T01:44:51;32.77;;;15.20;;
5042;SDS011;2540;50.928;6.856;2023-02-11T01:47:17;34.27;;;16.03;;
5042;SDS011;2540;50.928;6.856;2023-02-11T01:49:47;34.53;;;14.80;;
5042;SDS011;2540;50.928;6.856;2023-02-11T01:54:40;31.93;;;14.13;;
5042;SDS011;2540;50.928;6.856;2023-02-11T01:57:26;34.10;;;16.43;;
5042;SDS011;2540;50.928;6.856;2023-02-11T02:00:00;33.07;;;16.13;;
5042;SDS011;2540;50.928;6.856;2023-02-11T02:02:30;35.13;;;14.80;;
5042;SDS011;2540;50.928;6.856;2023-02-11T02:05:07;35.80;;;15.80;;
5042;SDS011;2540;50.928;6.856;2023-02-11T02:07:36;31.07;;;14.83;;
5042;SDS011;2540;50.928;6.856;2023-02-11T02:10:07;36.60;;;16.10;;
5042;SDS011;2540;50.928;6.856;2023-02-11T02:12:33;37.43;;;16.03;;
5042;SDS011;2540;50.928;6.856;2023-02-11T02:15:16;31.77;;;15.03;;
5042;SDS011;2540;50.928;6.856;2023-02-11T02:17:43;35.40;;;16.10;;
5042;SDS011;2540;50.928;6.856;2023-02-11T02:25:29;32.20;;;15.47;;
5042;SDS011;2540;50.928;6.856;2023-02-11T02:33:16;34.57;;;15.20;;
5042;SDS011;2540;50.928;6.856;2023-02-11T02:40:44;44.23;;;16.80;;
5042;SDS011;2540;50.928;6.856;2023-02-11T02:43:11;43.13;;;15.93;;
5042;SDS011;2540;50.928;6.856;2023-02-11T02:45:37;34.47;;;16.40;;
5042;SDS011;2540;50.928;6.856;2023-02-11T02:48:02;29.50;;;15.90;;
5042;SDS011;2540;50.928;6.856;2023-02-11T02:50:29;36.00;;;16.63;;
5042;SDS011;2540;50.928;6.856;2023-02-11T03:05:26;40.23;;;18.00;;
5042;SDS011;2540;50.928;6.856;2023-02-11T03:07:58;48.47;;;19.00;;
5042;SDS011;2540;50.928;6.856;2023-02-11T03:10:29;42.50;;;18.10;;
5042;SDS011;2540;50.928;6.856;2023-02-11T03:12:55;47.67;;;18.93;;
5042;SDS011;2540;50.928;6.856;2023-02-11T03:15:21;44.10;;;19.47;;
5042;SDS011;2540;50.928;6.856;2023-02-11T03:17:47;41.50;;;18.77;;
5042;SDS011;2540;50.928;6.856;2023-02-11T03:20:15;39.20;;;18.33;;
5042;SDS011;2540;50.928;6.856;2023-02-11T03:22:54;44.67;;;18.87;;
5042;SDS011;2540;50.928;6.856;2023-02-11T03:25:21;40.57;;;19.53;;
5042;SDS011;2540;50.928;6.856;2023-02-11T03:27:55;43.50;;;19.70;;
5042;SDS011;2540;50.928;6.856;2023-02-11T03:30:25;45.33;;;18.00;;
5042;SDS011;2540;50.928;6.856;2023-02-11T03:32:55;36.50;;;17.77;;
5042;SDS011;2540;50.928;6.856;2023-02-11T03:36:04;40.53;;;17.07;;
5042;SDS011;2540;50.928;6.856;2023-02-11T03:38:14;35.27;;;16.00;;
5042;SDS011;2540;50.928;6.856;2023-02-11T03:40:42;38.57;;;17.47;;
5042;SDS011;2540;50.928;6.856;2023-02-11T03:43:25;46.13;;;19.73;;
5042;SDS011;2540;50.928;6.856;2023-02-11T03:45:51;38.07;;;17.50;;
5042;SDS011;2540;50.928;6.856;2023-02-11T03:48:19;34.63;;;16.23;;
5042;SDS011;2540;50.928;6.856;2023-02-11T03:50:46;43.23;;;17.00;;
5042;SDS011;2540;50.928;6.856;2023-02-11T03:53:12;30.90;;;16.30;;
5042;SDS011;2540;50.928;6.856;2023-02-11T03:55:38;43.63;;;17.13;;
5042;SDS011;2540;50.928;6.856;2023-02-11T03:58:04;35.00;;;15.97;;
5042;SDS011;2540;50.928;6.856;2023-02-11T04:00:33;42.73;;;17.03;;
5042;SDS011;2540;50.928;6.856;2023-02-11T04:02:59;35.80;;;15.63;;
5042;SDS011;2540;50.928;6.856;2023-02-11T04:05:24;36.37;;;15.53;;
5042;SDS011;2540;50.928;6.856;2023-02-11T04:07:49;38.83;;;16.80;;
5042;SDS011;2540;50.928;6.856;2023-02-11T04:10:14;37.93;;;16.83;;
5042;SDS011;2540;50.928;6.856;2023-02-11T04:12:40;40.63;;;17.10;;
5042;SDS011;2540;50.928;6.856;2023-02-11T04:15:05;33.20;;;15.70;;
5042;SDS011;2540;50.928;6.856;2023-02-11T04:17:30;37.73;;;16.40;;
5042;SDS011;2540;50.928;6.856;2023-02-11T04:19:55;33.53;;;15.00;;
5042;SDS011;2540;50.928;6.856;2023-02-11T04:22:21;29.93;;;14.90;;
5042;SDS011;2540;50.928;6.856;2023-02-11T04:24:46;37.43;;;15.77;;
5042;SDS011;2540;50.928;6.856;2023-02-11T04:27:11;36.37;;;15.67;;
5042;SDS011;2540;50.928;6.856;2023-02-11T04:29:36;40.17;;;16.80;;
5042;SDS011;2540;50.928;6.856;2023-02-11T04:32:01;32.23;;;14.90;;
5042;SDS011;2540;50.928;6.856;2023-02-11T04:34:27;40.30;;;15.73;;
5042;SDS011;2540;50.928;6.856;2023-02-11T04:36:52;36.30;;;15.33;;
5042;SDS011;2540;50.928;6.856;2023-02-11T04:39:17;41.43;;;16.87;;
5042;SDS011;2540;50.928;6.856;2023-02-11T04:41:42;32.03;;;15.40;;
5042;SDS011;2540;50.928;6.856;2023-02-11T04:44:08;37.17;;;15.37;;
5042;SDS011;2540;50.928;6.856;2023-02-11T04:46:33;30.17;;;15.63;;
5042;SDS011;2540;50.928;6.856;2023-02-11T04:48:58;32.40;;;15.27;;
5042;SDS011;2540;50.928;6.856;2023-02-11T04:51:23;31.60;;;14.40;;
5042;SDS011;2540;50.928;6.856;2023-02-11T04:53:48;31.67;;;14.97;;
5042;SDS011;2540;50.928;6.856;2023-02-11T04:56:14;44.13;;;14.47;;
5042;SDS011;2540;50.928;6.856;2023-02-11T04:58:39;40.60;;;15.10;;
5042;SDS011;2540;50.928;6.856;2023-02-11T05:01:08;36.70;;;16.33;;
5042;SDS011;2540;50.928;6.856;2023-02-11T05:03:34;38.63;;;17.43;;
5042;SDS011;2540;50.928;6.856;2023-02-11T05:05:59;31.00;;;15.80;;
5042;SDS011;2540;50.928;6.856;2023-02-11T05:08:24;30.83;;;17.20;;
5042;SDS011;2540;50.928;6.856;2023-02-11T05:10:50;32.40;;;15.77;;
5042;SDS011;2540;50.928;6.856;2023-02-11T05:13:15;44.23;;;15.90;;
5042;SDS011;2540;50.928;6.856;2023-02-11T05:15:40;31.20;;;15.33;;
5042;SDS011;2540;50.928;6.856;2023-02-11T05:18:05;42.87;;;16.70;;
5042;SDS011;2540;50.928;6.856;2023-02-11T05:20:31;32.07;;;15.67;;
5042;SDS011;2540;50.928;6.856;2023-02-11T05:22:56;37.77;;;15.77;;
5042;SDS011;2540;50.928;6.856;2023-02-11T05:25:21;32.87;;;15.47;;
5042;SDS011;2540;50.928;6.856;2023-02-11T05:27:46;36.13;;;15.07;;
5042;SDS011;2540;50.928;6.856;2023-02-11T05:30:11;38.17;;;14.90;;
5042;SDS011;2540;50.928;6.856;2023-02-11T05:32:37;37.57;;;15.60;;
5042;SDS011;2540;50.928;6.856;2023-02-11T05:35:02;33.63;;;16.03;;
5042;SDS011;2540;50.928;6.856;2023-02-11T05:37:27;42.77;;;17.33;;
5042;SDS011;2540;50.928;6.856;2023-02-11T05:39:53;36.00;;;16.10;;
5042;SDS011;2540;50.928;6.856;2023-02-11T05:42:18;40.63;;;18.13;;
5042;SDS011;2540;50.928;6.856;2023-02-11T05:44:43;44.77;;;17.80;;
5042;SDS011;2540;50.928;6.856;2023-02-11T05:47:08;45.27;;;18.40;;
5042;SDS011;2540;50.928;6.856;2023-02-11T05:49:34;41.23;;;17.43;;
5042;SDS011;2540;50.928;6.856;2023-02-11T05:51:59;43.40;;;17.43;;
5042;SDS011;2540;50.928;6.856;2023-02-11T05:54:24;35.13;;;17.37;;
5042;SDS011;2540;50.928;6.856;2023-02-11T05:56:49;46.23;;;18.40;;
5042;SDS011;2540;50.928;6.856;2023-02-11T05:59:14;37.33;;;17.40;;
5042;SDS011;2540;50.928;6.856;2023-02-11T06:01:40;51.67;;;18.60;;
5042;SDS011;2540;50.928;6.856;2023-02-11T06:04:05;40.70;;;18.70;;
5042;SDS011;2540;50.928;6.856;2023-02-11T06:06:30;43.87;;;18.53;;
5042;SDS011;2540;50.928;6.856;2023-02-11T06:08:56;44.00;;;19.00;;
5042;SDS011;2540;50.928;6.856;2023-02-11T06:11:21;42.27;;;19.03;;
5042;SDS011;2540;50.928;6.856;2023-02-11T06:13:46;44.00;;;18.10;;
5042;SDS011;2540;50.928;6.856;2023-02-11T06:16:11;40.83;;;18.33;;
5042;SDS011;2540;50.928;6.856;2023-02-11T06:18:37;35.60;;;17.70;;
5042;SDS011;2540;50.928;6.856;2023-02-11T06:21:05;53.50;;;18.00;;
5042;SDS011;2540;50.928;6.856;2023-02-11T06:23:30;40.93;;;18.17;;
5042;SDS011;2540;50.928;6.856;2023-02-11T06:25:59;44.90;;;21.20;;
5042;SDS011;2540;50.928;6.856;2023-02-11T06:28:24;40.30;;;18.50;;
5042;SDS011;2540;50.928;6.856;2023-02-11T06:30:50;54.47;;;19.73;;
5042;SDS011;2540;50.928;6.856;2023-02-11T06:33:15;52.23;;;21.60;;
5042;SDS011;2540;50.928;6.856;2023-02-11T06:35:40;58.53;;;22.93;;
5042;SDS011;2540;50.928;6.856;2023-02-11T06:38:05;49.47;;;22.40;;
5042;SDS011;2540;50.928;6.856;2023-02-11T06:40:31;50.30;;;22.30;;
5042;SDS011;2540;50.928;6.856;2023-02-11T06:42:56;47.87;;;21.50;;
5042;SDS011;2540;50.928;6.856;2023-02-11T06:45:21;51.17;;;22.33;;
5042;SDS011;2540;50.928;6.856;2023-02-11T06:47:56;51.23;;;19.90;;
5042;SDS011;2540;50.928;6.856;2023-02-11T06:50:21;46.83;;;19.10;;
5042;SDS011;2540;50.928;6.856;2023-02-11T06:52:46;48.37;;;19.93;;
5042;SDS011;2540;50.928;6.856;2023-02-11T06:55:11;53.27;;;20.73;;
5042;SDS011;2540;50.928;6.856;2023-02-11T06:57:37;58.00;;;20.20;;
5042;SDS011;2540;50.928;6.856;2023-02-11T07:00:02;44.00;;;19.20;;
5042;SDS011;2540;50.928;6.856;2023-02-11T07:02:27;52.57;;;19.90;;
5042;SDS011;2540;50.928;6.856;2023-02-11T07:04:53;41.57;;;20.73;;
5042;SDS011;2540;50.928;6.856;2023-02-11T07:07:18;49.57;;;20.00;;
5042;SDS011;2540;50.928;6.856;2023-02-11T07:09:43;48.43;;;19.40;;
5042;SDS011;2540;50.928;6.856;2023-02-11T07:12:08;45.67;;;18.40;;
5042;SDS011;2540;50.928;6.856;2023-02-11T07:14:34;51.27;;;19.87;;
5042;SDS011;2540;50.928;6.856;2023-02-11T07:16:59;47.93;;;18.83;;
5042;SDS011;2540;50.928;6.856;2023-02-11T07:19:24;41.77;;;19.27;;
5042;SDS011;2540;50.928;6.856;2023-02-11T07:21:49;41.80;;;19.80;;
5042;SDS011;2540;50.928;6.856;2023-02-11T07:24:14;57.53;;;20.20;;
5042;SDS011;2540;50.928;6.856;2023-02-11T07:26:40;49.37;;;19.90;;
5042;SDS011;2540;50.928;6.856;2023-02-11T07:29:07;48.97;;;19.40;;
5042;SDS011;2540;50.928;6.856;2023-02-11T07:31:33;61.13;;;21.47;;
5042;SDS011;2540;50.928;6.856;2023-02-11T07:33:59;48.90;;;20.17;;
5042;SDS011;2540;50.928;6.856;2023-02-11T07:36:24;53.87;;;20.40;;
5042;SDS011;2540;50.928;6.856;2023-02-11T07:38:50;49.80;;;21.07;;
5042;SDS011;2540;50.928;6.856;2023-02-11T07:41:16;53.10;;;18.97;;
5042;SDS011;2540;50.928;6.856;2023-02-11T07:43:42;52.00;;;20.60;;
5042;SDS011;2540;50.928;6.856;2023-02-11T07:46:10;51.93;;;20.10;;
5042;SDS011;2540;50.928;6.856;2023-02-11T07:48:35;54.43;;;22.07;;
5042;SDS011;2540;50.928;6.856;2023-02-11T07:51:07;51.27;;;20.97;;
5042;SDS011;2540;50.928;6.856;2023-02-11T07:53:33;55.20;;;19.30;;
5042;SDS011;2540;50.928;6.856;2023-02-11T07:55:58;51.73;;;22.53;;
5042;SDS011;2540;50.928;6.856;2023-02-11T07:58:23;53.80;;;21.13;;
5042;SDS011;2540;50.928;6.856;2023-02-11T08:00:49;53.83;;;20.13;;
5042;SDS011;2540;50.928;6.856;2023-02-11T08:03:14;50.73;;;21.43;;
5042;SDS011;2540;50.928;6.856;2023-02-11T08:05:39;55.80;;;22.13;;
5042;SDS011;2540;50.928;6.856;2023-02-11T08:08:04;60.00;;;22.53;;
5042;SDS011;2540;50.928;6.856;2023-02-11T08:10:30;54.80;;;21.17;;
5042;SDS011;2540;50.928;6.856;2023-02-11T08:12:55;49.20;;;20.87;;
5042;SDS011;2540;50.928;6.856;2023-02-11T08:15:20;49.90;;;19.87;;
5042;SDS011;2540;50.928;6.856;2023-02-11T08:17:46;58.90;;;21.70;;
5042;SDS011;2540;50.928;6.856;2023-02-11T08:20:11;59.60;;;21.33;;
5042;SDS011;2540;50.928;6.856;2023-02-11T08:22:36;55.67;;;21.30;;
5042;SDS011;2540;50.928;6.856;2023-02-11T08:25:01;55.43;;;20.73;;
5042;SDS011;2540;50.928;6.856;2023-02-11T08:27:27;55.00;;;21.60;;
5042;SDS011;2540;50.928;6.856;2023-02-11T08:29:52;46.00;;;20.80;;
5042;SDS011;2540;50.928;6.856;2023-02-11T08:32:18;57.53;;;20.03;;
5042;SDS011;2540;50.928;6.856;2023-02-11T08:34:43;49.90;;;20.20;;
5042;SDS011;2540;50.928;6.856;2023-02-11T08:37:08;50.90;;;20.77;;
5042;SDS011;2540;50.928;6.856;2023-02-11T08:39:33;44.47;;;18.97;;
5042;SDS011;2540;50.928;6.856;2023-02-11T08:41:58;59.17;;;20.20;;
5042;SDS011;2540;50.928;6.856;2023-02-11T08:44:24;61.87;;;20.40;;
5042;SDS011;2540;50.928;6.856;2023-02-11T08:46:49;47.27;;;20.07;;
5042;SDS011;2540;50.928;6.856;2023-02-11T08:49:14;52.77;;;20.00;;
5042;SDS011;2540;50.928;6.856;2023-02-11T08:51:40;47.43;;;20.00;;
5042;SDS011;2540;50.928;6.856;2023-02-11T08:54:05;49.77;;;19.93;;
5042;SDS011;2540;50.928;6.856;2023-02-11T08:56:33;52.17;;;19.03;;
5042;SDS011;2540;50.928;6.856;2023-02-11T08:58:58;51.77;;;20.10;;
5042;SDS011;2540;50.928;6.856;2023-02-11T09:01:25;54.50;;;19.97;;
5042;SDS011;2540;50.928;6.856;2023-02-11T09:03:50;51.23;;;20.33;;
5042;SDS011;2540;50.928;6.856;2023-02-11T09:06:16;54.07;;;20.33;;
5042;SDS011;2540;50.928;6.856;2023-02-11T09:08:43;47.40;;;20.70;;
5042;SDS011;2540;50.928;6.856;2023-02-11T09:11:08;53.67;;;20.90;;
5042;SDS011;2540;50.928;6.856;2023-02-11T09:13:34;58.93;;;20.77;;
5042;SDS011;2540;50.928;6.856;2023-02-11T09:16:00;48.43;;;21.13;;
5042;SDS011;2540;50.928;6.856;2023-02-11T09:18:26;52.80;;;20.80;;
5042;SDS011;2540;50.928;6.856;2023-02-11T09:20:52;53.13;;;18.50;;
5042;SDS011;2540;50.928;6.856;2023-02-11T09:23:17;44.93;;;19.97;;
5042;SDS011;2540;50.928;6.856;2023-02-11T09:25:43;50.03;;;19.63;;
5042;SDS011;2540;50.928;6.856;2023-02-11T09:28:08;44.17;;;17.90;;
5042;SDS011;2540;50.928;6.856;2023-02-11T09:30:35;50.30;;;20.27;;
5042;SDS011;2540;50.928;6.856;2023-02-11T09:33:00;41.33;;;18.80;;
5042;SDS011;2540;50.928;6.856;2023-02-11T09:35:25;43.47;;;18.50;;
5042;SDS011;2540;50.928;6.856;2023-02-11T09:37:50;52.63;;;19.20;;
5042;SDS011;2540;50.928;6.856;2023-02-11T09:40:16;46.10;;;19.37;;
5042;SDS011;2540;50.928;6.856;2023-02-11T09:42:45;44.20;;;18.53;;
5042;SDS011;2540;50.928;6.856;2023-02-11T09:45:13;46.20;;;19.97;;
5042;SDS011;2540;50.928;6.856;2023-02-11T09:47:45;49.33;;;19.00;;
5042;SDS011;2540;50.928;6.856;2023-02-11T09:50:12;51.37;;;19.50;;
5042;SDS011;2540;50.928;6.856;2023-02-11T09:52:58;52.83;;;18.63;;
5042;SDS011;2540;50.928;6.856;2023-02-11T09:55:30;41.60;;;18.70;;
5042;SDS011;2540;50.928;6.856;2023-02-11T09:57:56;45.10;;;19.33;;
5042;SDS011;2540;50.928;6.856;2023-02-11T10:05:28;38.93;;;17.70;;
5042;SDS011;2540;50.928;6.856;2023-02-11T10:10:50;56.97;;;19.23;;
5042;SDS011;2540;50.928;6.856;2023-02-11T10:13:21;40.37;;;16.77;;
5042;SDS011;2540;50.928;6.856;2023-02-11T10:18:27;44.90;;;19.53;;
5042;SDS011;2540;50.928;6.856;2023-02-11T10:23:28;41.50;;;16.87;;
5042;SDS011;2540;50.928;6.856;2023-02-11T10:25:55;41.63;;;16.23;;
5042;SDS011;2540;50.928;6.856;2023-02-11T10:28:34;50.83;;;16.90;;
5042;SDS011;2540;50.928;6.856;2023-02-11T10:36:09;47.30;;;18.63;;
5042;SDS011;2540;50.928;6.856;2023-02-11T10:38:35;43.77;;;17.33;;
5042;SDS011;2540;50.928;6.856;2023-02-11T10:41:00;47.53;;;18.73;;
5042;SDS011;2540;50.928;6.856;2023-02-11T10:43:27;47.87;;;17.67;;
5042;SDS011;2540;50.928;6.856;2023-02-11T10:45:53;52.97;;;18.53;;
5042;SDS011;2540;50.928;6.856;2023-02-11T10:53:35;45.57;;;17.23;;
5042;SDS011;2540;50.928;6.856;2023-02-11T10:56:00;44.30;;;17.50;;
5042;SDS011;2540;50.928;6.856;2023-02-11T10:58:40;52.97;;;18.33;;
5042;SDS011;2540;50.928;6.856;2023-02-11T11:01:07;42.07;;;16.83;;
5042;SDS011;2540;50.928;6.856;2023-02-11T11:03:35;38.10;;;16.17;;
5042;SDS011;2540;50.928;6.856;2023-02-11T11:06:04;46.43;;;17.90;;
5042;SDS011;2540;50.928;6.856;2023-02-11T11:11:08;44.97;;;17.27;;
5042;SDS011;2540;50.928;6.856;2023-02-11T11:13:35;56.10;;;19.77;;
5042;SDS011;2540;50.928;6.856;2023-02-11T11:16:08;39.33;;;17.70;;
5042;SDS011;2540;50.928;6.856;2023-02-11T11:18:34;45.93;;;18.77;;
5042;SDS011;2540;50.928;6.856;2023-02-11T11:21:10;44.13;;;18.90;;
5042;SDS011;2540;50.928;6.856;2023-02-11T11:23:36;45.60;;;17.50;;
5042;SDS011;2540;50.928;6.856;2023-02-11T11:28:28;45.50;;;18.90;;
5042;SDS011;2540;50.928;6.856;2023-02-11T11:30:54;42.87;;;19.23;;
5042;SDS011;2540;50.928;6.856;2023-02-11T11:33:25;39.90;;;17.30;;
5042;SDS011;2540;50.928;6.856;2023-02-11T11:35:59;47.93;;;19.57;;
5042;SDS011;2540;50.928;6.856;2023-02-11T11:38:26;47.73;;;18.10;;
5042;SDS011;2540;50.928;6.856;2023-02-11T11:43:35;44.83;;;19.50;;
5042;SDS011;2540;50.928;6.856;2023-02-11T11:46:01;52.50;;;19.53;;
5042;SDS011;2540;50.928;6.856;2023-02-11T11:48:30;44.17;;;18.90;;
5042;SDS011;2540;50.928;6.856;2023-02-11T11:51:03;47.07;;;18.70;;
5042;SDS011;2540;50.928;6.856;2023-02-11T11:53:36;42.07;;;18.17;;
5042;SDS011;2540;50.928;6.856;2023-02-11T11:56:19;53.10;;;19.63;;
5042;SDS011;2540;50.928;6.856;2023-02-11T11:58:45;43.87;;;19.80;;
5042;SDS011;2540;50.928;6.856;2023-02-11T12:06:37;48.30;;;18.63;;
5042;SDS011;2540;50.928;6.856;2023-02-11T12:09:24;53.17;;;20.37;;
5042;SDS011;2540;50.928;6.856;2023-02-11T12:22:01;47.33;;;18.73;;
5042;SDS011;2540;50.928;6.856;2023-02-11T12:24:46;58.77;;;21.13;;
5042;SDS011;2540;50.928;6.856;2023-02-11T12:43:13;46.60;;;19.90;;
5042;SDS011;2540;50.928;6.856;2023-02-11T12:53:41;57.63;;;21.57;;
5042;SDS011;2540;50.928;6.856;2023-02-11T12:56:13;46.23;;;20.90;;
5042;SDS011;2540;50.928;6.856;2023-02-11T12:58:40;52.40;;;22.40;;
5042;SDS011;2540;50.928;6.856;2023-02-11T13:01:13;50.37;;;21.47;;
5042;SDS011;2540;50.928;6.856;2023-02-11T13:03:57;56.73;;;21.07;;
5042;SDS011;2540;50.928;6.856;2023-02-11T13:06:32;54.60;;;22.57;;
5042;SDS011;2540;50.928;6.856;2023-02-11T13:09:00;58.73;;;22.50;;
5042;SDS011;2540;50.928;6.856;2023-02-11T13:11:27;49.73;;;20.63;;
5042;SDS011;2540;50.928;6.856;2023-02-11T13:29:28;45.30;;;20.03;;
5042;SDS011;2540;50.928;6.856;2023-02-11T13:32:05;54.03;;;21.30;;
5042;SDS011;2540;50.928;6.856;2023-02-11T13:37:05;56.80;;;21.67;;
5042;SDS011;2540;50.928;6.856;2023-02-11T13:39:36;51.60;;;21.30;;
5042;SDS011;2540;50.928;6.856;2023-02-11T13:42:02;58.37;;;23.03;;
5042;SDS011;2540;50.928;6.856;2023-02-11T13:44:27;51.83;;;21.03;;
5042;SDS011;2540;50.928;6.856;2023-02-11T13:46:53;52.50;;;21.47;;
5042;SDS011;2540;50.928;6.856;2023-02-11T13:49:30;43.80;;;18.60;;
5042;SDS011;2540;50.928;6.856;2023-02-11T13:51:56;57.93;;;22.67;;
5042;SDS011;2540;50.928;6.856;2023-02-11T13:54:34;51.20;;;20.70;;
5042;SDS011;2540;50.928;6.856;2023-02-11T13:59:46;62.50;;;22.27;;
5042;SDS011;2540;50.928;6.856;2023-02-11T14:02:22;47.90;;;21.50;;
5042;SDS011;2540;50.928;6.856;2023-02-11T14:10:57;55.90;;;22.53;;
5042;SDS011;2540;50.928;6.856;2023-02-11T14:15:58;54.33;;;22.13;;
5042;SDS011;2540;50.928;6.856;2023-02-11T14:18:34;45.47;;;19.17;;
5042;SDS011;2540;50.928;6.856;2023-02-11T14:21:34;62.73;;;21.40;;
5042;SDS011;2540;50.928;6.856;2023-02-11T14:23:52;52.57;;;20.90;;
5042;SDS011;2540;50.928;6.856;2023-02-11T14:31:20;50.97;;;21.43;;
5042;SDS011;2540;50.928;6.856;2023-02-11T14:41:39;61.73;;;23.03;;
5042;SDS011;2540;50.928;6.856;2023-02-11T14:44:16;58.33;;;20.30;;
5042;SDS011;2540;50.928;6.856;2023-02-11T14:46:48;59.60;;;22.50;;
5042;SDS011;2540;50.928;6.856;2023-02-11T14:54:50;58.53;;;22.03;;
5042;SDS011;2540;50.928;6.856;2023-02-11T14:57:18;59.27;;;22.70;;
5042;SDS011;2540;50.928;6.856;2023-02-11T14:59:54;58.07;;;22.00;;
5042;SDS011;2540;50.928;6.856;2023-02-11T15:02:23;52.37;;;22.13;;
5042;SDS011;2540;50.928;6.856;2023-02-11T15:04:50;54.00;;;20.67;;
5042;SDS011;2540;50.928;6.856;2023-02-11T15:07:15;59.80;;;23.20;;
5042;SDS011;2540;50.928;6.856;2023-02-11T15:09:45;47.90;;;21.33;;
5042;SDS011;2540;50.928;6.856;2023-02-11T15:12:16;57.60;;;22.03;;
5042;SDS011;2540;50.928;6.856;2023-02-11T15:14:47;55.67;;;20.83;;
5042;SDS011;2540;50.928;6.856;2023-02-11T15:17:13;51.13;;;22.07;;
5042;SDS011;2540;50.928;6.856;2023-02-11T15:19:40;62.47;;;23.03;;
5042;SDS011;2540;50.928;6.856;2023-02-11T15:22:21;53.33;;;21.00;;
5042;SDS011;2540;50.928;6.856;2023-02-11T15:27:47;51.27;;;21.57;;
5042;SDS011;2540;50.928;6.856;2023-02-11T15:32:51;55.13;;;21.60;;
5042;SDS011;2540;50.928;6.856;2023-02-11T15:35:21;50.00;;;21.57;;
5042;SDS011;2540;50.928;6.856;2023-02-11T15:37:47;62.23;;;23.53;;
5042;SDS011;2540;50.928;6.856;2023-02-11T15:40:16;57.87;;;23.13;;
5042;SDS011;2540;50.928;6.856;2023-02-11T15:48:12;52.70;;;21.63;;
5042;SDS011;2540;50.928;6.856;2023-02-11T15:50:38;62.83;;;23.27;;
5042;SDS011;2540;50.928;6.856;2023-02-11T15:53:14;52.40;;;21.77;;
5042;SDS011;2540;50.928;6.856;2023-02-11T15:55:42;54.20;;;21.57;;
5042;SDS011;2540;50.928;6.856;2023-02-11T15:58:08;48.30;;;21.10;;
5042;SDS011;2540;50.928;6.856;2023-02-11T16:00:35;49.20;;;21.63;;
5042;SDS011;2540;50.928;6.856;2023-02-11T16:03:00;53.50;;;21.53;;
5042;SDS011;2540;50.928;6.856;2023-02-11T16:05:27;55.27;;;21.03;;
5042;SDS011;2540;50.928;6.856;2023-02-11T16:07:53;56.10;;;22.70;;
5042;SDS011;2540;50.928;6.856;2023-02-11T16:10:22;49.17;;;19.90;;
5042;SDS011;2540;50.928;6.856;2023-02-11T16:17:53;49.93;;;21.10;;
5042;SDS011;2540;50.928;6.856;2023-02-11T16:20:18;62.50;;;23.73;;
5042;SDS011;2540;50.928;6.856;2023-02-11T16:22:44;49.77;;;20.27;;
5042;SDS011;2540;50.928;6.856;2023-02-11T16:25:16;47.83;;;19.30;;
5042;SDS011;2540;50.928;6.856;2023-02-11T16:27:42;53.83;;;19.80;;
5042;SDS011;2540;50.928;6.856;2023-02-11T16:32:55;45.00;;;20.47;;
5042;SDS011;2540;50.928;6.856;2023-02-11T16:35:21;52.57;;;21.77;;
5042;SDS011;2540;50.928;6.856;2023-02-11T16:37:46;70.23;;;22.33;;
5042;SDS011;2540;50.928;6.856;2023-02-11T16:40:11;59.37;;;23.13;;
5042;SDS011;2540;50.928;6.856;2023-02-11T16:42:37;56.33;;;22.27;;
5042;SDS011;2540;50.928;6.856;2023-02-11T16:45:02;52.70;;;21.67;;
5042;SDS011;2540;50.928;6.856;2023-02-11T16:47:27;55.67;;;22.10;;
5042;SDS011;2540;50.928;6.856;2023-02-11T16:49:55;49.90;;;21.53;;
5042;SDS011;2540;50.928;6.856;2023-02-11T16:52:20;54.33;;;22.27;;
5042;SDS011;2540;50.928;6.856;2023-02-11T16:54:46;50.97;;;22.57;;
5042;SDS011;2540;50.928;6.856;2023-02-11T16:57:14;62.87;;;26.20;;
5042;SDS011;2540;50.928;6.856;2023-02-11T16:59:40;57.33;;;22.93;;
5042;SDS011;2540;50.928;6.856;2023-02-11T17:02:09;51.87;;;21.70;;
5042;SDS011;2540;50.928;6.856;2023-02-11T17:04:36;49.93;;;21.90;;
5042;SDS011;2540;50.928;6.856;2023-02-11T17:07:02;60.20;;;23.90;;
5042;SDS011;2540;50.928;6.856;2023-02-11T17:09:27;54.23;;;21.97;;
5042;SDS011;2540;50.928;6.856;2023-02-11T17:11:52;58.17;;;22.93;;
5042;SDS011;2540;50.928;6.856;2023-02-11T17:14:18;53.83;;;22.60;;
5042;SDS011;2540;50.928;6.856;2023-02-11T17:16:44;54.77;;;22.40;;
5042;SDS011;2540;50.928;6.856;2023-02-11T17:19:11;54.90;;;23.90;;
5042;SDS011;2540;50.928;6.856;2023-02-11T17:21:36;65.10;;;25.80;;
5042;SDS011;2540;50.928;6.856;2023-02-11T17:24:01;59.97;;;24.80;;
5042;SDS011;2540;50.928;6.856;2023-02-11T17:26:26;56.53;;;23.90;;
5042;SDS011;2540;50.928;6.856;2023-02-11T17:28:52;64.47;;;25.87;;
5042;SDS011;2540;50.928;6.856;2023-02-11T17:31:17;66.03;;;25.07;;
5042;SDS011;2540;50.928;6.856;2023-02-11T17:33:42;62.30;;;25.07;;
5042;SDS011;2540;50.928;6.856;2023-02-11T17:36:08;62.47;;;22.73;;